Tiempo atmosférico en la estación meteorológica de Chelva, València/Valencia (546 m.)



Fecha
DESCASC
Temp. máxima en grados centígrados (hora)
DESCASC
Temp. mínima en grados centígrados (hora)
DESCASC
Temp. media en grados centígrados
DESCASC
Racha de viento máxima en m/sg (hora)
DESCASC
Velocidad máxima media en intervalos de 10 minutos(hora)
DESCASC
Precipitaciones diarias en mm
DESCASC
Precipitaciones de 00:00 a 06:00 en mm
DESCASC
Precipitaciones de 06:00 a 12:00 en mm
DESCASC
Precipitaciones de 12:00 a 18:00 en mm
DESCASC
Precipitaciones de 18:00 a 24:00 en mm
DESCASC
23-05-2020 30.4 (16:10) 14.6 (06:50) 22.5 9.44 (17:30) 5 (17:10) 0 0 0 0 0
22-05-2020 31.2 (16:10) 15.4 (04:20) 23.3 9.17 (15:40) 5 (17:10) 0 0 0 0 0
21-05-2020 30.4 (15:30) 13.4 (00:00) 21.9 10.56 (15:10) 5 (17:10) 0 0 0 0 0
20-05-2020 30.6 (14:30) 13 (00:00) 21.8 9.17 (18:00) 5.28 (15:40) 0 0 0 0 0
19-05-2020 30.5 (16:00) 12 (05:50) 21.3 8.61 (17:20) 4.72 (17:00) 0 0 0 0 0
18-05-2020 27.8 (16:10) 9.7 (00:00) 18.7 8.89 (18:10) 5.28 (17:00) 0 0 0 0 0
17-05-2020 23.2 (16:10) 9.5 (00:00) 16.4 10.56 (18:10) 5.28 (18:10) 0.4 0 0 0.2 0.2
16-05-2020 19.8 (14:40) 11.9 (00:00) 15.8 7.22 (15:10) 4.17 (15:10) 1.8 0.2 0 0.2 1.4
15-05-2020 19 (12:30) 10.6 (07:10) 14.8 10.28 (12:50) 6.11 (12:40) 0.2 0 0 0 0.2
14-05-2020 15.8 (18:40) 10.2 (00:00) 13 9.72 (13:50) 5.83 (14:00) 10.2 0 9.6 0.6 0
13-05-2020 21.5 (17:40) 10 (00:00) 15.8 10.56 (10:40) 6.39 (10:40) 0.6 0.4 0.2 0 0
12-05-2020 21.6 (14:20) 11.4 (23:40) 16.5 11.39 (16:00) 6.11 (16:00) 11 0 0 2.8 8.2
11-05-2020 22.7 (16:20) 13 (00:00) 17.9 15 (15:10) 7.78 (15:10) 0 0 0 0 0
10-05-2020 20.9 (16:30) 13.5 (00:00) 17.2 14.17 (14:10) 8.06 (13:30) 1.6 1.2 0.4 0 0
09-05-2020 23.6 (15:30) 13.7 (04:20) 18.7 8.89 (14:20) 5.28 (14:50) 1.8 0 0 0 1.8
08-05-2020 23.1 (16:10) 10.7 (00:00) 16.9 11.67 (13:50) 6.94 (13:50) 0 0 0 0 0
07-05-2020 24.5 (13:20) 12.1 (00:00) 18.3 11.67 (13:10) 5.83 (13:50) 0 0 0 0 0
06-05-2020 28.1 (14:00) 12.9 (00:00) 20.5 10 (18:10) 6.11 (17:20) 0 0 0 0 0
05-05-2020 28.2 (15:50) 13.7 (00:00) 21 9.72 (13:10) 4.44 (13:00) 0 0 0 0 0
04-05-2020 27.6 (15:10) 12.5 (00:00) 20.1 8.33 (14:20) 4.72 (16:00) 0 0 0 0 0
03-05-2020 27.6 (14:30) 13.4 (07:00) 20.5 9.72 (16:10) 5.56 (15:30) 0 0 0 0 0
02-05-2020 29.6 (17:40) 15.5 (07:20) 22.6 11.39 (05:10) 6.94 (05:40) 0 0 0 0 0
01-05-2020 25.6 (15:40) 13.5 (00:00) 19.6 13.61 (12:40) 7.78 (05:30) 0 0 0 0 0
30-04-2020 22 (17:50) 13.8 (08:00) 17.9 13.89 (14:00) 7.5 (14:00) 0 0 0 0 0
29-04-2020 22.5 (18:10) 8.7 (00:00) 15.6 12.5 (16:10) 6.67 (16:00) 0 0 0 0 0
28-04-2020 20.1 (16:00) 9.4 (07:10) 14.8 13.06 (16:50) 6.39 (16:10) 0 0 0 0 0

Gráficas

Temp. máximas Temp. mínimas Temp. medias Precipitaciones Rachas de viento máximas Velocidades máximas media en intervalos de 10 minutos

Datos horarios

Fecha y hora oficial Temperatura (ºC) Velocidad del viento (km/h) Dirección del viento Racha (km/h) Dirección de racha Precipitación (mm) Presión (hPa) Tendencia (hPa) Humedad (%)
2020-05-27 23:00:00 16.7 13 Sudeste 24 Sudeste 0 -- -- 85
2020-05-27 22:00:00 17.2 13 Sudeste 24 Sudeste 0 -- -- 81
2020-05-27 21:00:00 19.2 12 Sudeste 28 Sudeste 0 -- -- 71
2020-05-27 20:00:00 21.5 15 Sudeste 36 Sudeste 0 -- -- 65
2020-05-27 19:00:00 23.1 21 Sudeste 44 Sudeste 0 -- -- 57
2020-05-27 18:00:00 25.3 22 Sudeste 41 Sudeste 0 -- -- 41
2020-05-27 17:00:00 26.1 21 Sudeste 44 Sudeste 0 -- -- 41
2020-05-27 16:00:00 26.8 17 Sudeste 42 Sudeste 0 -- -- 40
2020-05-27 15:00:00 26.4 20 Sudeste 42 Sudeste 0 -- -- 39
2020-05-27 14:00:00 26.4 21 Sudeste 38 Sudeste 0 -- -- 37
2020-05-27 13:00:00 26.3 17 Sudeste 39 Este 0 -- -- 37
2020-05-27 12:00:00 25.3 19 Sudeste 35 Sudeste 0 -- -- 40
2020-05-27 11:00:00 23.6 10 Sudeste 18 Sur 0 -- -- 45
2020-05-27 10:00:00 20.3 4 Oeste 8 Oeste 0 -- -- 53
2020-05-27 09:00:00 17.7 0 Calma 8 Oeste 0 -- -- 59
2020-05-27 08:00:00 14.2 4 Noroeste 9 Oeste 0 -- -- 67
2020-05-27 07:00:00 11.9 3 Norte 9 Oeste 0 -- -- 82
2020-05-27 06:00:00 12 0 Calma 4 Nordeste 0 -- -- 86
2020-05-27 05:00:00 12.5 0 Calma 5 Oeste 0 -- -- 85
2020-05-27 04:00:00 12.9 4 Norte 6 Nordeste 0 -- -- 86
2020-05-27 03:00:00 13.6 3 Nordeste 6 Norte 0 -- -- 85
2020-05-27 02:00:00 14.5 0 Calma 5 Norte 0 -- -- 83
2020-05-27 01:00:00 15.5 0 Calma 8 Nordeste 0 -- -- 79
2020-05-27 00:00:00 16.4 5 Nordeste 10 Nordeste 0 -- -- 75
2020-05-26 23:00:00 17.6 7 Este 13 Este 0 -- -- 71
2020-05-26 22:00:00 18.7 8 Sudeste 19 Sudeste 0 -- -- 65
2020-05-26 21:00:00 21 11 Sudeste 26 Sudeste 0 -- -- 56
2020-05-26 20:00:00 23.2 15 Sudeste 33 Sudeste 0 -- -- 51
2020-05-26 19:00:00 24.4 17 Sudeste 30 Sudeste 0 -- -- 47
2020-05-26 18:00:00 25.1 19 Sudeste 36 Sudeste 0 -- -- 46
2020-05-26 17:00:00 25.6 17 Sudeste 31 Sur 0 -- -- 44
2020-05-26 16:00:00 26 17 Sudeste 31 Sudeste 0 -- -- 42
2020-05-26 15:00:00 25 17 Sur 36 Sudeste 0 -- -- 47
2020-05-26 14:00:00 24.4 17 Sudeste 31 Sudeste 0 -- -- 46
2020-05-26 13:00:00 24.2 11 Sur 22 Sudeste 0 -- -- 52
2020-05-26 12:00:00 22.4 6 Sudeste 15 Sudeste 0 -- -- 58
2020-05-26 11:00:00 19.5 3 Este 6 Nordeste 0 -- -- 70
2020-05-26 10:00:00 17.5 0 Calma 5 Oeste 0 -- -- 80
2020-05-26 09:00:00 15.9 2 Sudoeste 5 Oeste 0 -- -- 88
2020-05-26 08:00:00 15.2 3 Nordeste 6 Este 0 -- -- 90
2020-05-26 07:00:00 15.3 0 Calma 5 Nordeste 0 -- -- 87
2020-05-26 06:00:00 15.5 2 Este 12 Noroeste 0 -- -- 84
2020-05-26 05:00:00 15.1 3 Norte 5 Nordeste 0 -- -- 86
2020-05-26 04:00:00 15.4 2 Nordeste 13 Noroeste 0 -- -- 84
2020-05-26 03:00:00 15.1 3 Norte 11 Nordeste 0 -- -- 87
2020-05-26 02:00:00 15.2 2 Noroeste 9 Oeste 0 -- -- 88
2020-05-26 01:00:00 15.4 3 Norte 7 Sur 0 -- -- 88
2020-05-26 00:00:00 16.3 6 Sur 10 Sudeste 0 -- -- 85
2020-05-25 23:00:00 16.2 4 Sudeste 17 Sudeste 0 -- -- 83
2020-05-25 22:00:00 17.4 9 Sudeste 22 Este 0 -- -- 75
2020-05-25 21:00:00 19.5 10 Sudeste 19 Sudeste 0 -- -- 65
2020-05-25 20:00:00 22.8 8 Sudeste 15 Sur 0 -- -- 54
2020-05-25 19:00:00 21.5 6 Sudeste 18 Sudeste 0 -- -- 54
2020-05-25 18:00:00 22.6 8 Sudeste 17 Sudeste 0 -- -- 52
2020-05-25 17:00:00 22.8 9 Sudeste 18 Este 0 -- -- 53
2020-05-25 16:00:00 21.6 13 Sudeste 25 Sudeste 0 -- -- 57
2020-05-25 15:00:00 21.7 12 Sudeste 20 Sudeste 0 -- -- 58
2020-05-25 14:00:00 21.2 12 Este 20 Sudeste 0.4 -- -- 59
2020-05-25 13:00:00 21.4 9 Sudeste 26 Sudeste 0 -- -- 56
2020-05-25 12:00:00 22.1 12 Sur 27 Sur 0 -- -- 49
2020-05-25 11:00:00 21.2 9 Sudeste 18 Sudeste 0 -- -- 53
2020-05-25 10:00:00 17.9 0 Calma 5 Sur 0 -- -- 71
2020-05-25 09:00:00 16.4 0 Calma 10 Oeste 0 -- -- 79
2020-05-25 08:00:00 14.5 0 Calma 5 Sudeste 0 -- -- 85
2020-05-25 07:00:00 13 0 Calma 5 Oeste 0 -- -- 91
2020-05-25 06:00:00 13.1 3 Noroeste 8 Norte 0 -- -- 91
2020-05-25 05:00:00 13.4 4 Nordeste 7 Nordeste 0 -- -- 90
2020-05-25 04:00:00 13.8 3 Nordeste 4 Nordeste 0 -- -- 89
2020-05-25 03:00:00 14.4 0 Calma 5 Norte 0 -- -- 89
2020-05-25 02:00:00 15.1 0 Calma 6 Noroeste 0 -- -- 87
2020-05-25 01:00:00 15.6 2 Noroeste 4 Noroeste 0 -- -- 86
2020-05-25 00:00:00 16.4 5 Sudeste 13 Sur 0 -- -- 82
2020-05-24 23:00:00 17.1 7 Sudeste 18 Este 0 -- -- 80
2020-05-24 22:00:00 17.6 11 Sudeste 22 Sudeste 0 -- -- 80
2020-05-24 21:00:00 18.4 13 Sudeste 28 Sudeste 0 -- -- 77
2020-05-24 20:00:00 20.4 16 Sudeste 26 Sudeste 0 -- -- 70
2020-05-24 19:00:00 22.7 13 Sudeste 27 Sudeste 0 -- -- 64
2020-05-24 18:00:00 23.5 16 Sudeste 28 Sudeste 0 -- -- 60
2020-05-24 17:00:00 24.5 14 Sudeste 32 Sudeste 0 -- -- 56
2020-05-24 16:00:00 24.6 17 Sudeste 30 Sudeste 0 -- -- 56
2020-05-24 15:00:00 24.7 15 Sudeste 28 Sudeste 0 -- -- 55
2020-05-24 14:00:00 24.5 14 Sudeste 29 Sudeste 0 -- -- 54
2020-05-24 13:00:00 22.7 11 Sudeste 26 Sudeste 0 -- -- 59
2020-05-24 12:00:00 22.2 15 Sudeste 27 Sudeste 0 -- -- 61
2020-05-24 11:00:00 20.1 10 Sudeste 24 Sur 0 -- -- 70
2020-05-24 10:00:00 19.2 7 Sudeste 13 Sudeste 0 -- -- 74
2020-05-24 09:00:00 18.3 3 Sudeste 5 Sudeste 0 -- -- 77
2020-05-24 08:00:00 15.1 0 Calma 6 Nordeste 0 -- -- 87
2020-05-24 07:00:00 13.9 2 Norte 6 Nordeste 0 -- -- 90
2020-05-24 06:00:00 14.5 5 Nordeste 8 Nordeste 0 -- -- 88
2020-05-24 05:00:00 15.1 5 Nordeste 7 Nordeste 0 -- -- 84
2020-05-24 04:00:00 15.1 0 Calma 7 Este 0 -- -- 75
2020-05-24 03:00:00 15.2 4 Nordeste 7 Este 0 -- -- 73
2020-05-24 02:00:00 16.1 0 Calma 10 Nordeste 0 -- -- 72
2020-05-24 01:00:00 16.6 0 Calma 7 Nordeste 0 -- -- 71
2020-05-24 00:00:00 17.8 4 Nordeste 9 Nordeste 0 -- -- 66
2020-05-23 23:00:00 18.9 4 Nordeste 6 Norte 0 -- -- 63
2020-05-23 22:00:00 20.2 2 Este 13 Sudeste 0 -- -- 57
2020-05-23 21:00:00 22.5 8 Sudeste 29 Este 0 -- -- 51
2020-05-23 20:00:00 24.9 14 Sudeste 28 Sudeste 0 -- -- 41
2020-05-23 19:00:00 26.8 18 Sudeste 32 Sudeste 0 -- -- 45
2020-05-23 18:00:00 27.8 18 Sudeste 34 Sudeste 0 -- -- 43
2020-05-23 17:00:00 29.2 18 Sudeste 31 Sudeste 0 -- -- 42
2020-05-23 16:00:00 30.1 15 Sudeste 27 Sudeste 0 -- -- 39
2020-05-23 15:00:00 29.7 13 Sudeste 27 Sudeste 0 -- -- 40
2020-05-23 14:00:00 28.9 13 Sur 27 Sudeste 0 -- -- 41
2020-05-23 13:00:00 28.3 11 Sudeste 20 Sudeste 0 -- -- 41
2020-05-23 12:00:00 27.8 8 Sudeste 17 Sudeste 0 -- -- 42
2020-05-23 11:00:00 25.6 4 Sur 7 Sudoeste 0 -- -- 43
2020-05-23 10:00:00 22.6 2 Sur 5 Sudoeste 0 -- -- 56
2020-05-23 09:00:00 19.6 2 Sudoeste 4 Sudoeste 0 -- -- 63
2020-05-23 08:00:00 17.1 0 Calma 7 Noroeste 0 -- -- 71
2020-05-23 07:00:00 14.7 3 Noroeste 5 Nordeste 0 -- -- 78
2020-05-23 06:00:00 14.9 3 Noroeste 9 Oeste 0 -- -- 78
2020-05-23 05:00:00 15 2 Oeste 6 Oeste 0 -- -- 80
2020-05-23 04:00:00 15.4 3 Noroeste 9 Noroeste 0 -- -- 80
2020-05-23 03:00:00 15.9 0 Calma 7 Noroeste 0 -- -- 79
2020-05-23 02:00:00 16.5 0 Calma 5 Nordeste 0 -- -- 77
2020-05-23 01:00:00 17.1 2 Oeste 6 Nordeste 0 -- -- 74
2020-05-23 00:00:00 18.2 3 Norte 7 Norte 0 -- -- 70
2020-05-22 23:00:00 19.5 4 Nordeste 7 Nordeste 0 -- -- 65
2020-05-22 22:00:00 20.8 5 Sudeste 15 Sur 0 -- -- 60
2020-05-22 21:00:00 23.1 11 Sudeste 23 Sudeste 0 -- -- 54
2020-05-22 20:00:00 26.1 15 Sudeste 28 Sudeste 0 -- -- 50
2020-05-22 19:00:00 28.2 14 Sudeste 29 Sudeste 0 -- -- 46
2020-05-22 18:00:00 29.9 14 Sudeste 32 Sudeste 0 -- -- 42
2020-05-22 17:00:00 30.5 17 Sudeste 30 Sudeste 0 -- -- 40
2020-05-22 16:00:00 31 15 Sudeste 33 Sudeste 0 -- -- 39
2020-05-22 15:00:00 30.8 15 Sudeste 27 Sur 0 -- -- 37
2020-05-22 14:00:00 29.7 14 Sur 27 Sur 0 -- -- 40
2020-05-22 13:00:00 29.5 13 Sudeste 23 Sudeste 0 -- -- 40
2020-05-22 12:00:00 28.6 8 Sudeste 16 Sudeste 0 -- -- 38
2020-05-22 11:00:00 26.8 3 Sudeste 9 Sudeste 0 -- -- 42
2020-05-22 10:00:00 23.6 2 Nordeste 9 Este 0 -- -- 58
2020-05-22 09:00:00 20.4 4 Oeste 15 Oeste 0 -- -- 59
2020-05-22 08:00:00 17.6 10 Noroeste 19 Oeste 0 -- -- 63
2020-05-22 07:00:00 16.4 10 Noroeste 18 Noroeste 0 -- -- 68
2020-05-22 06:00:00 16.3 6 Noroeste 12 Noroeste 0 -- -- 70
2020-05-22 05:00:00 15.7 3 Norte 8 Noroeste 0 -- -- 73
2020-05-22 04:00:00 15.6 0 Calma 4 Sudoeste 0 -- -- 75
2020-05-22 03:00:00 16.1 3 Noroeste 6 Oeste 0 -- -- 72
2020-05-22 02:00:00 16.3 3 Norte 5 Nordeste 0 -- -- 70
2020-05-22 01:00:00 16.9 0 Calma 5 Noroeste 0 -- -- 69
2020-05-22 00:00:00 17.9 0 Calma 5 Nordeste 0 -- -- 64
2020-05-21 23:00:00 19.3 4 Norte 9 Norte 0 -- -- 60
2020-05-21 22:00:00 20.8 4 Norte 9 Este 0 -- -- 56
2020-05-21 21:00:00 23.9 6 Sudeste 21 Sudeste 0 -- -- 48
2020-05-21 20:00:00 26.2 11 Sudeste 25 Sudeste 0 -- -- 43
2020-05-21 19:00:00 27.7 14 Sudeste 32 Sur 0 -- -- 41
2020-05-21 18:00:00 28.8 16 Sudeste 32 Sudeste 0 -- -- 38
2020-05-21 17:00:00 29.9 16 Sudeste 30 Sudeste 0 -- -- 35
2020-05-21 16:00:00 30.1 14 Sudeste 38 Sudeste 0 -- -- 33
2020-05-21 15:00:00 30 11 Sudeste 27 Sudeste 0 -- -- 34
2020-05-21 14:00:00 29.1 12 Sudeste 27 Sudeste 0 -- -- 34
2020-05-21 13:00:00 28.4 12 Sudeste 21 Sudeste 0 -- -- 33
2020-05-21 12:00:00 27.5 7 Sudeste 14 Sudeste 0 -- -- 33
2020-05-21 11:00:00 25.4 2 Sur 8 Este 0 -- -- 42
2020-05-21 10:00:00 22 0 Calma 6 Sudeste 0 -- -- 49
2020-05-21 09:00:00 18.9 4 Noroeste 9 Oeste 0 -- -- 60
2020-05-21 08:00:00 16 0 Calma 13 Noroeste 0 -- -- 69
2020-05-21 07:00:00 14.1 5 Oeste 9 Norte 0 -- -- 73
2020-05-21 06:00:00 13.8 2 Noroeste 9 Oeste 0 -- -- 77
2020-05-21 05:00:00 14.4 3 Oeste 6 Oeste 0 -- -- 75
2020-05-21 04:00:00 14.3 0 Calma 6 Norte 0 -- -- 75
2020-05-21 03:00:00 15 4 Norte 6 Oeste 0 -- -- 68
2020-05-21 02:00:00 15.4 2 Norte 6 Nordeste 0 -- -- 69
2020-05-21 01:00:00 15.9 2 Norte 5 Nordeste 0 -- -- 69
2020-05-21 00:00:00 17.2 4 Nordeste 8 Este 0 -- -- 62
2020-05-20 23:00:00 18.7 5 Nordeste 10 Nordeste 0 -- -- 59
2020-05-20 22:00:00 20.4 5 Nordeste 14 Sudeste 0 -- -- 54
2020-05-20 21:00:00 23.2 10 Sudeste 23 Sudeste 0 -- -- 45
2020-05-20 20:00:00 26.2 12 Sudeste 25 Sudeste 0 -- -- 41
2020-05-20 19:00:00 27.1 16 Sudeste 31 Sudeste 0 -- -- 39
2020-05-20 18:00:00 27.5 19 Sudeste 33 Sudeste 0 -- -- 42
2020-05-20 17:00:00 28.3 18 Sudeste 33 Sudeste 0 -- -- 43
2020-05-20 16:00:00 29.2 18 Sudeste 32 Sudeste 0 -- -- 40
2020-05-20 15:00:00 30 18 Sudeste 31 Sudeste 0 -- -- 39
2020-05-20 14:00:00 29.7 11 Sur 22 Sur 0 -- -- 33
2020-05-20 13:00:00 28.4 8 Sur 14 Sudeste 0 -- -- 35
2020-05-20 12:00:00 26.8 5 Sur 11 Sur 0 -- -- 42
2020-05-20 11:00:00 24.8 4 Sur 7 Sudoeste 0 -- -- 46
2020-05-20 10:00:00 21.8 0 Calma 10 Noroeste 0 -- -- 53
2020-05-20 09:00:00 18.2 5 Noroeste 10 Noroeste 0 -- -- 63
2020-05-20 08:00:00 15.6 2 Noroeste 12 Noroeste 0 -- -- 75
2020-05-20 07:00:00 13 4 Noroeste 10 Noroeste 0 -- -- 80
2020-05-20 06:00:00 13.5 3 Oeste 8 Oeste 0 -- -- 79
2020-05-20 05:00:00 13.6 4 Norte 9 Noroeste 0 -- -- 79
2020-05-20 04:00:00 13.9 2 Noroeste 5 Norte 0 -- -- 79
2020-05-20 03:00:00 14.8 2 Norte 5 Norte 0 -- -- 74
2020-05-20 02:00:00 15.6 3 Noroeste 4 Norte 0 -- -- 73
2020-05-20 01:00:00 16 4 Nordeste 5 Nordeste 0 -- -- 73
2020-05-20 00:00:00 16.8 3 Nordeste 7 Nordeste 0 -- -- 70
2020-05-19 23:00:00 18.1 6 Nordeste 8 Nordeste 0 -- -- 66
2020-05-19 22:00:00 19.5 4 Nordeste 6 Nordeste 0 -- -- 63
2020-05-19 21:00:00 21.6 4 Este 12 Sudeste 0 -- -- 59
2020-05-19 20:00:00 23.2 9 Sudeste 20 Sudeste 0 -- -- 54
2020-05-19 19:00:00 25.5 13 Sudeste 27 Sudeste 0 -- -- 48
2020-05-19 18:00:00 28.1 17 Sudeste 31 Este 0 -- -- 44
2020-05-19 17:00:00 29.5 17 Sudeste 30 Sudeste 0 -- -- 38
2020-05-19 16:00:00 30.5 9 Sur 20 Sur 0 -- -- 26
2020-05-19 15:00:00 29 12 Sur 21 Sur 0 -- -- 26
2020-05-19 14:00:00 28 7 Sudoeste 17 Oeste 0 -- -- 29
2020-05-19 13:00:00 26.6 9 Sudoeste 23 Oeste 0 -- -- 35
2020-05-19 12:00:00 24.9 12 Oeste 23 Oeste 0 -- -- 40
2020-05-19 11:00:00 22.9 8 Oeste 14 Oeste 0 -- -- 48
2020-05-19 10:00:00 19.3 8 Oeste 18 Oeste 0 -- -- 59
2020-05-19 09:00:00 16.7 5 Oeste 10 Oeste 0 -- -- 67
2020-05-19 08:00:00 14.1 0 Calma 8 Noroeste 0 -- -- 82
2020-05-19 07:00:00 12.4 3 Norte 18 Oeste 0 -- -- 83
2020-05-19 06:00:00 12.4 6 Noroeste 14 Norte 0 -- -- 87
2020-05-19 05:00:00 12.3 6 Noroeste 9 Noroeste 0 -- -- 89
2020-05-19 04:00:00 12.9 4 Noroeste 9 Noroeste 0 -- -- 87
2020-05-19 03:00:00 12.8 0 Calma 5 Oeste 0 -- -- 89
2020-05-19 02:00:00 13.2 0 Calma 6 Norte 0 -- -- 86
2020-05-19 01:00:00 14 3 Oeste 8 Nordeste 0 -- -- 83
2020-05-19 00:00:00 14.6 4 Norte 6 Nordeste 0 -- -- 82
2020-05-18 23:00:00 15.6 4 Nordeste 8 Este 0 -- -- 80
2020-05-18 22:00:00 16.9 5 Este 13 Sudeste 0 -- -- 73
2020-05-18 21:00:00 18.9 10 Sudeste 21 Sudeste 0 -- -- 65
2020-05-18 20:00:00 21.6 13 Sudeste 26 Sudeste 0 -- -- 60
2020-05-18 19:00:00 23.3 18 Sudeste 32 Sudeste 0 -- -- 58
2020-05-18 18:00:00 25.2 17 Sudeste 31 Sudeste 0 -- -- 51
2020-05-18 17:00:00 26.2 19 Sudeste 31 Sudeste 0 -- -- 44
2020-05-18 16:00:00 27.4 9 Sudeste 22 Sudeste 0 -- -- 28
2020-05-18 15:00:00 26.6 9 Sudeste 25 Sudeste 0 -- -- 30
2020-05-18 14:00:00 25.9 6 Sur 17 Sudeste 0 -- -- 29
2020-05-18 13:00:00 24.7 9 Sudeste 17 Sur 0 -- -- 35
2020-05-18 12:00:00 22.6 6 Sudoeste 13 Oeste 0 -- -- 36
2020-05-18 11:00:00 20.7 5 Oeste 13 Oeste 0 -- -- 52
2020-05-18 10:00:00 18.1 3 Oeste 7 Oeste 0 -- -- 61
2020-05-18 09:00:00 15 5 Este 7 Este 0 -- -- 72
2020-05-18 08:00:00 11.7 3 Nordeste 6 Nordeste 0 -- -- 90
2020-05-18 07:00:00 9.8 4 Norte 8 Nordeste 0 -- -- 92
2020-05-18 06:00:00 10.7 4 Norte 13 Noroeste 0 -- -- 88
2020-05-18 05:00:00 11 4 Norte 10 Oeste 0 -- -- 89
2020-05-18 04:00:00 11.2 4 Norte 9 Noroeste 0 -- -- 90
2020-05-18 03:00:00 11.5 0 Calma 6 Norte 0 -- -- 90
2020-05-18 02:00:00 11.9 2 Noroeste 5 Norte 0 -- -- 90
2020-05-18 01:00:00 12.1 0 Calma 6 Norte 0 -- -- 89
2020-05-18 00:00:00 13.1 3 Noroeste 8 Nordeste 0 -- -- 86
2020-05-17 23:00:00 13.7 5 Nordeste 8 Nordeste 0 -- -- 85
2020-05-17 22:00:00 15 0 Calma 5 Nordeste 0 -- -- 82
2020-05-17 21:00:00 16.7 4 Este 8 Sudeste 0 -- -- 76
2020-05-17 20:00:00 18.5 3 Sudeste 18 Este 0 -- -- 65
2020-05-17 19:00:00 17 10 Este 38 Nordeste 0.2 -- -- 73
2020-05-17 18:00:00 18.1 14 Nordeste 23 Norte 0.2 -- -- 71
2020-05-17 17:00:00 22.3 10 Sudeste 23 Este 0 -- -- 47
2020-05-17 16:00:00 22.4 14 Sudeste 31 Sudeste 0 -- -- 46
2020-05-17 15:00:00 22.6 7 Sudeste 18 Sudeste 0 -- -- 47
2020-05-17 14:00:00 22.3 8 Sudeste 19 Sudeste 0 -- -- 42
2020-05-17 13:00:00 20.8 8 Sur 19 Sur 0 -- -- 48
2020-05-17 12:00:00 19.5 6 Sur 12 Sur 0 -- -- 49
2020-05-17 11:00:00 18.3 4 Sudeste 11 Sudeste 0 -- -- 56
2020-05-17 10:00:00 16.3 4 Sudeste 11 Oeste 0 -- -- 62
2020-05-17 09:00:00 13.9 6 Oeste 14 Oeste 0 -- -- 69
2020-05-17 08:00:00 11.7 6 Noroeste 12 Noroeste 0 -- -- 77
2020-05-17 07:00:00 11 7 Noroeste 14 Noroeste 0 -- -- 77
2020-05-17 06:00:00 9.5 3 Norte 11 Noroeste 0 -- -- 90
2020-05-17 05:00:00 10.8 4 Norte 13 Noroeste 0 -- -- 84
2020-05-17 04:00:00 11.8 8 Noroeste 15 Oeste 0 -- -- 79
2020-05-17 03:00:00 11.9 5 Norte 14 Noroeste 0 -- -- 89
2020-05-17 02:00:00 12 0 Calma 12 Noroeste 0 -- -- 92
2020-05-17 01:00:00 12.3 0 Calma 14 Noroeste 0 -- -- 91
2020-05-17 00:00:00 12.1 3 Noroeste 8 Noroeste 0 -- -- 94
2020-05-16 23:00:00 12.6 0 Calma 7 Oeste 0 -- -- 92
2020-05-16 22:00:00 13.2 3 Noroeste 13 Noroeste 0.4 -- -- 91
2020-05-16 21:00:00 13.4 9 Noroeste 18 Noroeste 1 -- -- 87
2020-05-16 20:00:00 15.1 12 Noroeste 21 Noroeste 0 -- -- 77
2020-05-16 19:00:00 17.3 4 Oeste 10 Nordeste 0 -- -- 69
2020-05-16 18:00:00 17.6 6 Este 22 Sur 0 -- -- 70
2020-05-16 17:00:00 17.5 11 Sudeste 22 Sudeste 0 -- -- 66
2020-05-16 16:00:00 16.4 10 Sudeste 26 Sudeste 0.2 -- -- 75
2020-05-16 15:00:00 19.1 11 Sur 22 Sur 0 -- -- 65
2020-05-16 14:00:00 18.3 11 Sudeste 21 Sudeste 0 -- -- 66
2020-05-16 13:00:00 18 8 Este 17 Este 0 -- -- 64
2020-05-16 12:00:00 18.1 4 Sudeste 14 Sur 0 -- -- 64
2020-05-16 11:00:00 17.9 5 Sudoeste 10 Sur 0 -- -- 62
2020-05-16 10:00:00 15.7 4 Sudoeste 7 Sudoeste 0 -- -- 71
2020-05-16 09:00:00 13.7 0 Calma 4 Este 0 -- -- 85
2020-05-16 08:00:00 12.3 2 Nordeste 4 Norte 0 -- -- 92
2020-05-16 07:00:00 11.9 2 Norte 5 Oeste 0 -- -- 92
2020-05-16 06:00:00 12 0 Calma 4 Sudeste 0 -- -- 93
2020-05-16 05:00:00 12.1 0 Calma 3 Este 0 -- -- 93
2020-05-16 04:00:00 12 0 Calma 5 Nordeste 0 -- -- 93
2020-05-16 03:00:00 12.1 0 Calma 5 Norte 0 -- -- 93
2020-05-16 02:00:00 12.2 3 Norte 4 Norte 0 -- -- 93
2020-05-16 01:00:00 12.4 5 Norte 8 Nordeste 0.2 -- -- 93
2020-05-16 00:00:00 12.9 0 Calma 11 Noroeste 0 -- -- 93
2020-05-15 23:00:00 12.9 5 Noroeste 8 Noroeste 0 -- -- 94
2020-05-15 22:00:00 13.2 3 Sudeste 17 Este 0.2 -- -- 92
2020-05-15 21:00:00 13.7 8 Sudeste 18 Sudeste 0 -- -- 87
2020-05-15 20:00:00 14.8 13 Sudeste 22 Sudeste 0 -- -- 78
2020-05-15 19:00:00 16.5 10 Sudeste 21 Este 0 -- -- 69
2020-05-15 18:00:00 16.3 14 Sudeste 25 Sudeste 0 -- -- 72
2020-05-15 17:00:00 17 17 Sudeste 27 Sur 0 -- -- 64
2020-05-15 16:00:00 16.4 15 Sudeste 24 Sudeste 0 -- -- 67
2020-05-15 15:00:00 16.2 14 Sudeste 24 Este 0 -- -- 69
2020-05-15 14:00:00 15.6 8 Sudeste 31 Sudeste 0 -- -- 71
2020-05-15 13:00:00 16.8 19 Sudeste 37 Sudeste 0 -- -- 61
2020-05-15 12:00:00 18.9 13 Sudeste 24 Sudeste 0 -- -- 60
2020-05-15 11:00:00 18.3 7 Sudeste 17 Sudeste 0 -- -- 57
2020-05-15 10:00:00 16.9 4 Este 9 Sudeste 0 -- -- 62
2020-05-15 09:00:00 14.5 3 Sudoeste 6 Sudeste 0 -- -- 66
2020-05-15 08:00:00 12.3 6 Noroeste 18 Noroeste 0 -- -- 77
2020-05-15 07:00:00 10.7 8 Oeste 19 Noroeste 0 -- -- 80
2020-05-15 06:00:00 11.6 11 Noroeste 21 Noroeste 0 -- -- 77
2020-05-15 05:00:00 11.5 9 Noroeste 15 Noroeste 0 -- -- 78
2020-05-15 04:00:00 12.2 10 Oeste 31 Noroeste 0 -- -- 75
2020-05-15 03:00:00 12.4 12 Noroeste 22 Noroeste 0 -- -- 73
2020-05-15 02:00:00 11.8 8 Noroeste 13 Noroeste 0 -- -- 76
2020-05-15 01:00:00 12.4 8 Noroeste 16 Noroeste 0 -- -- 72
2020-05-15 00:00:00 12.7 8 Noroeste 13 Noroeste 0 -- -- 70
2020-05-14 23:00:00 12.7 6 Noroeste 16 Noroeste 0 -- -- 69
2020-05-14 22:00:00 13.3 9 Noroeste 19 Noroeste 0 -- -- 68
2020-05-14 21:00:00 14 8 Noroeste 23 Oeste 0 -- -- 66
2020-05-14 20:00:00 14.9 11 Noroeste 27 Noroeste 0 -- -- 62
2020-05-14 19:00:00 15.6 16 Noroeste 30 Oeste 0 -- -- 59
2020-05-14 18:00:00 15.2 15 Noroeste 30 Oeste 0 -- -- 63
2020-05-14 17:00:00 14.3 12 Noroeste 23 Oeste 0 -- -- 69
2020-05-14 16:00:00 13.7 13 Noroeste 28 Noroeste 0 -- -- 69
2020-05-14 15:00:00 13.7 10 Noroeste 30 Noroeste 0 -- -- 71
2020-05-14 14:00:00 12.4 21 Noroeste 35 Noroeste 0.2 -- -- 74
2020-05-14 13:00:00 11.8 12 Noroeste 25 Oeste 0.4 -- -- 84
2020-05-14 12:00:00 10.8 12 Noroeste 26 Oeste 3.2 -- -- 89
2020-05-14 11:00:00 10.8 13 Oeste 23 Oeste 2 -- -- 89
2020-05-14 10:00:00 11 6 Noroeste 18 Sudoeste 4.4 -- -- 92
2020-05-14 09:00:00 11.6 3 Nordeste 5 Nordeste 0 -- -- 88
2020-05-14 08:00:00 11.1 3 Sudoeste 6 Oeste 0 -- -- 87
2020-05-14 07:00:00 10.7 3 Norte 5 Oeste 0 -- -- 89
2020-05-14 06:00:00 10.6 0 Calma 5 Norte 0 -- -- 88
2020-05-14 05:00:00 10.5 0 Calma 8 Norte 0 -- -- 87
2020-05-14 04:00:00 10.2 3 Norte 8 Oeste 0 -- -- 87
2020-05-14 03:00:00 10.9 3 Noroeste 7 Nordeste 0 -- -- 85
2020-05-14 02:00:00 11.7 4 Norte 8 Este 0 -- -- 81
2020-05-14 01:00:00 12.3 4 Norte 9 Nordeste 0 -- -- 77
2020-05-14 00:00:00 12.8 4 Oeste 8 Norte 0 -- -- 76
2020-05-13 23:00:00 13.5 5 Norte 9 Nordeste 0 -- -- 73
2020-05-13 22:00:00 14.8 6 Noroeste 11 Noroeste 0 -- -- 68
2020-05-13 21:00:00 17.5 6 Norte 9 Norte 0 -- -- 58
2020-05-13 20:00:00 19.4 4 Oeste 16 Oeste 0 -- -- 50
2020-05-13 19:00:00 20.6 8 Oeste 21 Sudoeste 0 -- -- 45
2020-05-13 18:00:00 21.2 12 Oeste 22 Noroeste 0 -- -- 45
2020-05-13 17:00:00 18.9 12 Noroeste 22 Sudoeste 0 -- -- 51
2020-05-13 16:00:00 19 12 Sudoeste 23 Sudoeste 0 -- -- 52
2020-05-13 15:00:00 17.3 11 Noroeste 23 Oeste 0 -- -- 57
2020-05-13 14:00:00 17.4 10 Noroeste 25 Noroeste 0 -- -- 58
2020-05-13 13:00:00 17.5 10 Noroeste 23 Oeste 0 -- -- 57
2020-05-13 12:00:00 16.5 13 Noroeste 37 Noroeste 0 -- -- 59
2020-05-13 11:00:00 16.3 17 Noroeste 38 Noroeste 0 -- -- 61
2020-05-13 10:00:00 14.6 15 Noroeste 28 Oeste 0.2 -- -- 68
2020-05-13 09:00:00 13.2 12 Oeste 24 Oeste 0 -- -- 74
2020-05-13 08:00:00 11.7 14 Noroeste 21 Noroeste 0 -- -- 77
2020-05-13 07:00:00 10.9 8 Noroeste 21 Noroeste 0 -- -- 80
2020-05-13 06:00:00 10.8 14 Noroeste 24 Noroeste 0 -- -- 82
2020-05-13 05:00:00 11.1 13 Noroeste 28 Noroeste 0 -- -- 81
2020-05-13 04:00:00 10.3 9 Noroeste 21 Noroeste 0 -- -- 89
2020-05-13 03:00:00 10.7 14 Noroeste 23 Noroeste 0 -- -- 85
2020-05-13 02:00:00 10.5 8 Noroeste 14 Noroeste 0 -- -- 91
2020-05-13 01:00:00 11 6 Noroeste 10 Noroeste 0.4 -- -- 92
2020-05-13 00:00:00 11.6 5 Sudoeste 14 Nordeste 1 -- -- 90
2020-05-12 23:00:00 11.8 3 Oeste 17 Norte 0 -- -- 87
2020-05-12 22:00:00 11.6 2 Oeste 26 Oeste 3.6 -- -- 92
2020-05-12 21:00:00 13.2 2 Sudoeste 20 Sudeste 2.8 -- -- 94
2020-05-12 20:00:00 13.9 8 Sudeste 15 Sudeste 0.4 -- -- 93
2020-05-12 19:00:00 14.3 6 Sudeste 12 Sudeste 0.4 -- -- 91
2020-05-12 18:00:00 15.2 3 Este 9 Sudeste 1.8 -- -- 88
2020-05-12 17:00:00 14.9 7 Sudeste 37 Sudeste 1 -- -- 84
2020-05-12 16:00:00 17.8 22 Sudeste 41 Sudeste 0 -- -- 62
2020-05-12 15:00:00 20.5 15 Sudeste 34 Sudeste 0 -- -- 53
2020-05-12 14:00:00 20.8 13 Sudeste 26 Sudeste 0 -- -- 54
2020-05-12 13:00:00 17.6 11 Sudeste 21 Sudeste 0 -- -- 61
2020-05-12 12:00:00 19.4 4 Este 10 Oeste 0 -- -- 60
2020-05-12 11:00:00 16.9 3 Sudoeste 22 Noroeste 0 -- -- 65
2020-05-12 10:00:00 13.9 5 Oeste 15 Oeste 0 -- -- 76
2020-05-12 09:00:00 13.7 5 Noroeste 16 Oeste 0 -- -- 73
2020-05-12 08:00:00 13.3 2 Noroeste 14 Norte 0 -- -- 75
2020-05-12 07:00:00 12.9 5 Oeste 19 Noroeste 0 -- -- 75
2020-05-12 06:00:00 13.4 11 Noroeste 28 Oeste 0 -- -- 74
2020-05-12 05:00:00 12.8 5 Oeste 14 Noroeste 0 -- -- 77
2020-05-12 04:00:00 13.6 9 Norte 15 Noroeste 0 -- -- 75
2020-05-12 03:00:00 12.9 6 Norte 12 Noroeste 0 -- -- 78
2020-05-12 02:00:00 14.3 6 Noroeste 18 Noroeste 0 -- -- 72
2020-05-12 01:00:00 14.7 8 Noroeste 15 Noroeste 0 -- -- 71
2020-05-12 00:00:00 14.7 7 Noroeste 18 Noroeste 0 -- -- 70
2020-05-11 23:00:00 16.1 10 Noroeste 18 Noroeste 0 -- -- 64
2020-05-11 22:00:00 16.8 10 Noroeste 30 Noroeste 0 -- -- 63
2020-05-11 21:00:00 16.9 14 Oeste 44 Oeste 0 -- -- 63
2020-05-11 20:00:00 20.3 17 Oeste 36 Noroeste 0 -- -- 53
2020-05-11 19:00:00 21 24 Oeste 41 Noroeste 0 -- -- 46
2020-05-11 18:00:00 21.9 21 Oeste 49 Sudoeste 0 -- -- 44
2020-05-11 17:00:00 22 21 Oeste 40 Oeste 0 -- -- 43
2020-05-11 16:00:00 21.9 24 Oeste 54 Oeste 0 -- -- 43
2020-05-11 15:00:00 22 26 Oeste 52 Oeste 0 -- -- 41
2020-05-11 14:00:00 21.2 27 Oeste 49 Oeste 0 -- -- 44
2020-05-11 13:00:00 18.6 17 Noroeste 42 Noroeste 0 -- -- 52
2020-05-11 12:00:00 17.3 19 Noroeste 50 Oeste 0 -- -- 58
2020-05-11 11:00:00 17.2 13 Oeste 49 Noroeste 0 -- -- 56
2020-05-11 10:00:00 16 15 Noroeste 33 Oeste 0 -- -- 62
2020-05-11 09:00:00 15.2 12 Oeste 28 Noroeste 0 -- -- 63
2020-05-11 08:00:00 13.8 12 Noroeste 33 Noroeste 0 -- -- 66
2020-05-11 07:00:00 13 9 Oeste 17 Oeste 0 -- -- 70
2020-05-11 06:00:00 13.6 8 Oeste 30 Noroeste 0 -- -- 66
2020-05-11 05:00:00 13.4 15 Noroeste 31 Oeste 0 -- -- 68
2020-05-11 04:00:00 13.3 16 Oeste 28 Oeste 0 -- -- 67
2020-05-11 03:00:00 13.4 12 Noroeste 26 Oeste 0 -- -- 65
2020-05-11 02:00:00 14 16 Noroeste 27 Noroeste 0 -- -- 62
2020-05-11 01:00:00 14.3 13 Noroeste 24 Noroeste 0 -- -- 60
2020-05-11 00:00:00 15.2 14 Noroeste 30 Noroeste 0 -- -- 57
2020-05-10 23:00:00 15.5 15 Noroeste 29 Noroeste 0 -- -- 58
2020-05-10 22:00:00 15.7 13 Noroeste 33 Noroeste 0 -- -- 60
2020-05-10 21:00:00 15.9 14 Noroeste 41 Noroeste 0 -- -- 55
2020-05-10 20:00:00 18.2 22 Oeste 45 Oeste 0 -- -- 47
2020-05-10 19:00:00 18.2 19 Oeste 48 Oeste 0 -- -- 47
2020-05-10 18:00:00 19.3 25 Oeste 49 Oeste 0 -- -- 46
2020-05-10 17:00:00 19.8 23 Oeste 50 Oeste 0 -- -- 40
2020-05-10 16:00:00 20 22 Oeste 49 Noroeste 0 -- -- 37
2020-05-10 15:00:00 19.8 21 Oeste 51 Noroeste 0 -- -- 44
2020-05-10 14:00:00 18.5 23 Noroeste 48 Noroeste 0 -- -- 47
2020-05-10 13:00:00 18.5 20 Noroeste 50 Noroeste 0 -- -- 53
2020-05-10 12:00:00 17 26 Oeste 44 Oeste 0.2 -- -- 59
2020-05-10 11:00:00 15.5 18 Noroeste 33 Noroeste 0 -- -- 68
2020-05-10 10:00:00 15.3 10 Noroeste 19 Noroeste 0 -- -- 78
2020-05-10 09:00:00 14 0 Calma 24 Noroeste 0 -- -- 85
2020-05-10 08:00:00 13.9 13 Noroeste 22 Noroeste 0.2 -- -- 81
2020-05-10 07:00:00 14.2 4 Oeste 13 Oeste 0 -- -- 93
2020-05-10 06:00:00 14.5 10 Noroeste 21 Noroeste 0 -- -- 91
2020-05-10 05:00:00 14.1 5 Noroeste 10 Nordeste 0 -- -- 96
2020-05-10 04:00:00 14.5 0 Calma 5 Norte 0 -- -- 95
2020-05-10 03:00:00 14.7 0 Calma 6 Sudeste 0 -- -- 95
2020-05-10 02:00:00 14.9 5 Nordeste 8 Nordeste 1.2 -- -- 94
2020-05-10 01:00:00 15.1 0 Calma 6 Sudeste 0 -- -- 93
2020-05-10 00:00:00 15.2 0 Calma 14 Sudeste 1.8 -- -- 91
2020-05-09 23:00:00 16.1 4 Este 9 Sudoeste 0 -- -- 85
2020-05-09 22:00:00 16.3 5 Sur 21 Sudeste 0 -- -- 84
2020-05-09 21:00:00 16.5 9 Sudeste 21 Sudeste 0 -- -- 81
2020-05-09 20:00:00 17 7 Sur 27 Este 0 -- -- 80
2020-05-09 19:00:00 17.9 17 Sudeste 29 Sudeste 0 -- -- 82
2020-05-09 18:00:00 19.4 16 Sudeste 32 Sudeste 0 -- -- 76
2020-05-09 17:00:00 21.4 13 Sudeste 27 Sudeste 0 -- -- 71
2020-05-09 16:00:00 23 15 Sudeste 28 Sur 0 -- -- 64
2020-05-09 15:00:00 23.2 18 Sudeste 32 Sudeste 0 -- -- 62
2020-05-09 14:00:00 23 17 Sudeste 31 Sur 0 -- -- 62
2020-05-09 13:00:00 22.3 15 Sudeste 31 Sudeste 0 -- -- 62
2020-05-09 12:00:00 21.6 12 Sudeste 28 Sur 0 -- -- 64
2020-05-09 11:00:00 21.1 4 Sur 10 Sur 0 -- -- 61
2020-05-09 10:00:00 18.6 5 Oeste 23 Oeste 0 -- -- 68
2020-05-09 09:00:00 15.9 15 Noroeste 25 Noroeste 0 -- -- 76
2020-05-09 08:00:00 14.2 4 Norte 21 Oeste 0 -- -- 84
2020-05-09 07:00:00 14.1 9 Oeste 18 Noroeste 0 -- -- 85
2020-05-09 06:00:00 14.4 5 Noroeste 9 Noroeste 0 -- -- 89
2020-05-09 05:00:00 13.9 4 Nordeste 10 Este 0 -- -- 85
2020-05-09 04:00:00 14.2 2 Sudeste 6 Sudoeste 0 -- -- 92
2020-05-09 03:00:00 14.4 4 Noroeste 7 Sudoeste 0 -- -- 91
2020-05-09 02:00:00 14.9 0 Calma 6 Noroeste 0 -- -- 89
2020-05-09 01:00:00 15.1 3 Sudoeste 6 Sudoeste 0 -- -- 88
2020-05-09 00:00:00 14.9 3 Nordeste 6 Este 0 -- -- 87
2020-05-08 23:00:00 16 4 Nordeste 13 Este 0 -- -- 84
2020-05-08 22:00:00 17 9 Sudeste 18 Sudeste 0 -- -- 81
2020-05-08 21:00:00 18 10 Sudeste 22 Sudeste 0 -- -- 77
2020-05-08 20:00:00 20.3 13 Sudeste 26 Sudeste 0 -- -- 69
2020-05-08 19:00:00 21.6 14 Sudeste 34 Este 0 -- -- 64
2020-05-08 18:00:00 22.5 16 Sudeste 31 Sudeste 0 -- -- 63
2020-05-08 17:00:00 23 15 Sudeste 29 Sudeste 0 -- -- 59
2020-05-08 16:00:00 22.7 14 Sur 27 Sudeste 0 -- -- 58
2020-05-08 15:00:00 22.1 15 Sudeste 32 Este 0 -- -- 57
2020-05-08 14:00:00 21.3 14 Sudeste 42 Este 0 -- -- 58
2020-05-08 13:00:00 20.7 15 Sur 30 Sur 0 -- -- 61
2020-05-08 12:00:00 19.7 15 Sudeste 29 Sudeste 0 -- -- 63
2020-05-08 11:00:00 18.4 10 Sudeste 17 Sur 0 -- -- 67
2020-05-08 10:00:00 17.2 3 Nordeste 10 Oeste 0 -- -- 69
2020-05-08 09:00:00 14.7 3 Sur 7 Oeste 0 -- -- 80
2020-05-08 08:00:00 12.6 0 Calma 27 Oeste 0 -- -- 85
2020-05-08 07:00:00 11.4 3 Oeste 10 Este 0 -- -- 83
2020-05-08 06:00:00 10.8 4 Este 9 Este 0 -- -- 84
2020-05-08 05:00:00 11.2 3 Noroeste 8 Nordeste 0 -- -- 83
2020-05-08 04:00:00 11.9 4 Oeste 5 Oeste 0 -- -- 82
2020-05-08 03:00:00 12.5 3 Noroeste 6 Norte 0 -- -- 80
2020-05-08 02:00:00 13.2 3 Oeste 8 Nordeste 0 -- -- 82
2020-05-08 01:00:00 14.3 4 Norte 8 Nordeste 0 -- -- 82
2020-05-08 00:00:00 15.4 4 Norte 7 Nordeste 0 -- -- 80
2020-05-07 23:00:00 16 4 Norte 12 Nordeste 0 -- -- 77
2020-05-07 22:00:00 16.8 6 Este 23 Este 0 -- -- 75
2020-05-07 21:00:00 18.6 13 Sudeste 27 Sudeste 0 -- -- 70
2020-05-07 20:00:00 20.3 9 Sudeste 21 Sudeste 0 -- -- 54
2020-05-07 19:00:00 21.5 13 Sudeste 29 Sudeste 0 -- -- 51
2020-05-07 18:00:00 22.2 14 Sudeste 32 Sudeste 0 -- -- 49
2020-05-07 17:00:00 22.7 15 Sudeste 31 Sudeste 0 -- -- 50
2020-05-07 16:00:00 22.4 15 Sudeste 36 Sudeste 0 -- -- 46
2020-05-07 15:00:00 23.1 21 Sudeste 35 Sur 0 -- -- 44
2020-05-07 14:00:00 24 18 Sudeste 42 Sudeste 0 -- -- 43
2020-05-07 13:00:00 24 19 Sudeste 33 Sudeste 0 -- -- 42
2020-05-07 12:00:00 22.8 12 Sudeste 25 Sur 0 -- -- 52
2020-05-07 11:00:00 20.4 4 Sur 14 Sudeste 0 -- -- 62
2020-05-07 10:00:00 19.3 3 Sur 7 Sur 0 -- -- 68
2020-05-07 09:00:00 16.6 2 Sudeste 9 Oeste 0 -- -- 71
2020-05-07 08:00:00 13.9 2 Nordeste 12 Oeste 0 -- -- 82
2020-05-07 07:00:00 12.2 0 Calma -- -- 0 -- -- 89
2020-05-07 06:00:00 12.7 0 Calma 5 Sudoeste 0 -- -- 90
2020-05-07 05:00:00 13.3 2 Oeste 5 Oeste 0 -- -- 89
2020-05-07 04:00:00 13.4 0 Calma 4 Oeste 0 -- -- 90
2020-05-07 03:00:00 13.8 2 Oeste 4 Oeste 0 -- -- 88
2020-05-07 02:00:00 14.3 3 Norte 5 Norte 0 -- -- 87
2020-05-07 01:00:00 14.9 3 Norte 6 Nordeste 0 -- -- 84
2020-05-07 00:00:00 15.7 0 Calma 8 Nordeste 0 -- -- 82
2020-05-06 23:00:00 16.9 4 Nordeste 9 Este 0 -- -- 77
2020-05-06 22:00:00 18.4 5 Este 11 Sudeste 0 -- -- 72
2020-05-06 21:00:00 20 7 Sudeste 15 Sur 0 -- -- 65
2020-05-06 20:00:00 23 9 Sudeste 23 Sudeste 0 -- -- 56
2020-05-06 19:00:00 23.5 13 Sudeste 36 Sudeste 0 -- -- 55
2020-05-06 18:00:00 23.7 19 Sudeste 35 Sudeste 0 -- -- 52
2020-05-06 17:00:00 25.1 18 Sudeste 33 Sudeste 0 -- -- 47
2020-05-06 16:00:00 26.2 17 Sudeste 33 Sudeste 0 -- -- 44
2020-05-06 15:00:00 26.5 21 Sudeste 33 Sudeste 0 -- -- 48
2020-05-06 14:00:00 28.1 11 Sur 21 Sudeste 0 -- -- 37
2020-05-06 13:00:00 27.9 6 Sudeste 14 Sudeste 0 -- -- 34
2020-05-06 12:00:00 25.1 6 Sur 12 Sudeste 0 -- -- 39
2020-05-06 11:00:00 23.5 4 Sur 10 Sudoeste 0 -- -- 42
2020-05-06 10:00:00 20.1 6 Oeste 10 Oeste 0 -- -- 54
2020-05-06 09:00:00 16.9 4 Sudoeste 9 Noroeste 0 -- -- 60
2020-05-06 08:00:00 14.4 6 Noroeste 19 Noroeste 0 -- -- 69
2020-05-06 07:00:00 13.5 10 Noroeste 17 Noroeste 0 -- -- 71
2020-05-06 06:00:00 13.2 5 Norte 8 Norte 0 -- -- 80
2020-05-06 05:00:00 13.4 4 Noroeste 6 Norte 0 -- -- 84
2020-05-06 04:00:00 13.6 3 Oeste 5 Noroeste 0 -- -- 83
2020-05-06 03:00:00 14.2 3 Oeste 6 Oeste 0 -- -- 86
2020-05-06 02:00:00 14.9 0 Calma 5 Nordeste 0 -- -- 85
2020-05-06 01:00:00 15.6 0 Calma 6 Nordeste 0 -- -- 83
2020-05-06 00:00:00 16.4 3 Noroeste 8 Nordeste 0 -- -- 79
2020-05-05 23:00:00 17.5 4 Norte 8 Nordeste 0 -- -- 76
2020-05-05 22:00:00 18.6 5 Norte 7 Norte 0 -- -- 72
2020-05-05 21:00:00 21.1 2 Sudoeste 9 Sudeste 0 -- -- 61
2020-05-05 20:00:00 24.1 8 Sudeste 17 Sudeste 0 -- -- 58
2020-05-05 19:00:00 24.8 7 Sur 20 Sudeste 0 -- -- 58
2020-05-05 18:00:00 25.1 10 Sudeste 24 Sudoeste 0 -- -- 59
2020-05-05 17:00:00 27.5 11 Oeste 25 Oeste 0 -- -- 30
2020-05-05 16:00:00 28.1 9 Oeste 24 Oeste 0 -- -- 30
2020-05-05 15:00:00 27.5 10 Oeste 28 Sudoeste 0 -- -- 33
2020-05-05 14:00:00 27.3 10 Oeste 35 Oeste 0 -- -- 37
2020-05-05 13:00:00 26.7 16 Oeste 27 Oeste 0 -- -- 39
2020-05-05 12:00:00 25.6 6 Noroeste 14 Oeste 0 -- -- 46
2020-05-05 11:00:00 23.4 6 Noroeste 14 Oeste 0 -- -- 51
2020-05-05 10:00:00 21.7 7 Oeste 23 Oeste 0 -- -- 56
2020-05-05 09:00:00 17.2 11 Noroeste 18 Oeste 0 -- -- 68
2020-05-05 08:00:00 15.6 6 Noroeste 14 Noroeste 0 -- -- 72
2020-05-05 07:00:00 14.6 10 Noroeste 19 Noroeste 0 -- -- 75
2020-05-05 06:00:00 13.9 3 Norte 6 Noroeste 0 -- -- 80
2020-05-05 05:00:00 14.1 4 Noroeste 10 Noroeste 0 -- -- 79
2020-05-05 04:00:00 14.2 3 Oeste 5 Nordeste 0 -- -- 81
2020-05-05 03:00:00 14.7 2 Oeste 6 Nordeste 0 -- -- 82
2020-05-05 02:00:00 15.3 2 Sudoeste 5 Nordeste 0 -- -- 83
2020-05-05 01:00:00 15.8 0 Calma 6 Este 0 -- -- 83
2020-05-05 00:00:00 16.7 0 Calma 7 Norte 0 -- -- 80
2020-05-04 23:00:00 17.7 3 Norte 8 Nordeste 0 -- -- 77
2020-05-04 22:00:00 18.7 3 Norte 11 Este 0 -- -- 76
2020-05-04 21:00:00 20.3 4 Sudeste 19 Sudeste 0 -- -- 72
2020-05-04 20:00:00 23.3 11 Sudeste 23 Sur 0 -- -- 60
2020-05-04 19:00:00 25.5 10 Sudeste 27 Sudeste 0 -- -- 51
2020-05-04 18:00:00 25.1 13 Sudeste 28 Sudeste 0 -- -- 49
2020-05-04 17:00:00 25.1 12 Sudeste 28 Sudeste 0 -- -- 54
2020-05-04 16:00:00 26.1 17 Sudeste 30 Sudeste 0 -- -- 49
2020-05-04 15:00:00 27.4 13 Sudeste 30 Sudeste 0 -- -- 48
2020-05-04 14:00:00 26.2 14 Sur 23 Sur 0 -- -- 47
2020-05-04 13:00:00 26.1 7 Sudeste 15 Sudeste 0 -- -- 46
2020-05-04 12:00:00 24.1 6 Sudeste 17 Este 0 -- -- 50
2020-05-04 11:00:00 21.2 3 Sur 8 Sur 0 -- -- 56
2020-05-04 10:00:00 19.2 2 Norte 7 Oeste 0 -- -- 67
2020-05-04 09:00:00 16.5 2 Sudoeste 6 Oeste 0 -- -- 71
2020-05-04 08:00:00 13.4 4 Oeste 9 Oeste 0 -- -- 82
2020-05-04 07:00:00 12.6 5 Oeste 7 Noroeste 0 -- -- 84
2020-05-04 06:00:00 12.6 0 Calma 5 Oeste 0 -- -- 85
2020-05-04 05:00:00 13.1 2 Oeste 5 Oeste 0 -- -- 84
2020-05-04 04:00:00 13.6 0 Calma 8 Oeste 0 -- -- 81
2020-05-04 03:00:00 14.1 0 Calma 5 Norte 0 -- -- 79
2020-05-04 02:00:00 14.4 0 Calma 5 Nordeste 0 -- -- 80
2020-05-04 01:00:00 15.1 0 Calma 5 Nordeste 0 -- -- 78
2020-05-04 00:00:00 15.9 0 Calma 5 Norte 0 -- -- 74
2020-05-03 23:00:00 17.1 2 Nordeste 8 Nordeste 0 -- -- 70
2020-05-03 22:00:00 18.6 5 Nordeste 10 Sudeste 0 -- -- 65
2020-05-03 21:00:00 20.5 7 Sudeste 20 Sudeste 0 -- -- 58
2020-05-03 20:00:00 23.6 11 Sudeste 26 Sudeste 0 -- -- 51
2020-05-03 19:00:00 24.7 16 Sudeste 29 Sudeste 0 -- -- 49
2020-05-03 18:00:00 25.9 17 Sudeste 31 Sudeste 0 -- -- 48
2020-05-03 17:00:00 26.3 17 Sudeste 35 Sudeste 0 -- -- 49
2020-05-03 16:00:00 26.8 18 Sudeste 33 Sudeste 0 -- -- 47
2020-05-03 15:00:00 27.1 18 Sudeste 34 Sudeste 0 -- -- 44
2020-05-03 14:00:00 27.4 13 Sudeste 26 Sudeste 0 -- -- 41
2020-05-03 13:00:00 26.9 13 Sudeste 22 Sudeste 0 -- -- 41
2020-05-03 12:00:00 26.2 9 Sudeste 17 Sur 0 -- -- 38
2020-05-03 11:00:00 24.1 6 Sudeste 11 Este 0 -- -- 48
2020-05-03 10:00:00 21 4 Sudoeste 10 Sudoeste 0 -- -- 51
2020-05-03 09:00:00 17.9 4 Oeste 10 Oeste 0 -- -- 60
2020-05-03 08:00:00 15.6 0 Calma 12 Noroeste 0 -- -- 64
2020-05-03 07:00:00 13.4 0 Calma 12 Noroeste 0 -- -- 69
2020-05-03 06:00:00 14.2 4 Este 10 Noroeste 0 -- -- 66
2020-05-03 05:00:00 15.1 4 Norte 15 Noroeste 0 -- -- 63
2020-05-03 04:00:00 16 4 Norte 13 Noroeste 0 -- -- 60
2020-05-03 03:00:00 17.2 5 Norte 18 Noroeste 0 -- -- 57
2020-05-03 02:00:00 16.8 3 Oeste 6 Este 0 -- -- 57
2020-05-03 01:00:00 18.2 3 Norte 9 Nordeste 0 -- -- 52
2020-05-03 00:00:00 19.9 3 Norte 16 Noroeste 0 -- -- 46
2020-05-02 23:00:00 22.4 6 Noroeste 18 Noroeste 0 -- -- 39
2020-05-02 22:00:00 23.6 9 Noroeste 24 Oeste 0 -- -- 38
2020-05-02 21:00:00 25.3 13 Noroeste 26 Noroeste 0 -- -- 33
2020-05-02 20:00:00 27.2 13 Oeste 29 Noroeste 0 -- -- 31
2020-05-02 19:00:00 29.2 13 Oeste 29 Oeste 0 -- -- 27
2020-05-02 18:00:00 29.6 15 Noroeste 35 Noroeste 0 -- -- 27
2020-05-02 17:00:00 29.4 19 Noroeste 36 Noroeste 0 -- -- 29
2020-05-02 16:00:00 29.1 17 Oeste 34 Oeste 0 -- -- 31
2020-05-02 15:00:00 28.9 15 Oeste 38 Oeste 0 -- -- 33
2020-05-02 14:00:00 28.2 11 Oeste 24 Noroeste 0 -- -- 34
2020-05-02 13:00:00 26.4 7 Oeste 25 Sudoeste 0 -- -- 41
2020-05-02 12:00:00 24.4 13 Oeste 32 Noroeste 0 -- -- 47
2020-05-02 11:00:00 21.3 21 Noroeste 36 Noroeste 0 -- -- 55
2020-05-02 10:00:00 19.3 14 Noroeste 30 Oeste 0 -- -- 62
2020-05-02 09:00:00 17.1 19 Noroeste 36 Noroeste 0 -- -- 69
2020-05-02 08:00:00 15.7 23 Noroeste 40 Oeste 0 -- -- 73
2020-05-02 07:00:00 16 19 Noroeste 33 Noroeste 0 -- -- 72
2020-05-02 06:00:00 16 24 Noroeste 41 Norte 0 -- -- 72
2020-05-02 05:00:00 16.9 22 Noroeste 33 Noroeste 0 -- -- 70
2020-05-02 04:00:00 17.5 17 Noroeste 27 Noroeste 0 -- -- 67
2020-05-02 03:00:00 18.4 14 Noroeste 22 Noroeste 0 -- -- 65
2020-05-02 02:00:00 18 11 Noroeste 18 Noroeste 0 -- -- 66
2020-05-02 01:00:00 17.1 5 Noroeste 7 Oeste 0 -- -- 70
2020-05-02 00:00:00 18 5 Oeste 14 Noroeste 0 -- -- 65
2020-05-01 23:00:00 20.1 12 Noroeste 26 Noroeste 0 -- -- 57
2020-05-01 22:00:00 20.3 14 Noroeste 22 Noroeste 0 -- -- 53
2020-05-01 21:00:00 21.7 15 Noroeste 30 Oeste 0 -- -- 48
2020-05-01 20:00:00 23.7 16 Oeste 35 Oeste 0 -- -- 44
2020-05-01 19:00:00 24.8 15 Noroeste 37 Noroeste 0 -- -- 44
2020-05-01 18:00:00 25 18 Oeste 42 Oeste 0 -- -- 44
2020-05-01 17:00:00 25.2 22 Oeste 47 Noroeste 0 -- -- 44
2020-05-01 16:00:00 25.3 19 Oeste 39 Oeste 0 -- -- 42
2020-05-01 15:00:00 24.9 21 Noroeste 44 Oeste 0 -- -- 44
2020-05-01 14:00:00 24.6 18 Oeste 44 Oeste 0 -- -- 44
2020-05-01 13:00:00 22.5 24 Noroeste 49 Noroeste 0 -- -- 50
2020-05-01 12:00:00 20.7 24 Oeste 44 Oeste 0 -- -- 52
2020-05-01 11:00:00 19.2 23 Noroeste 42 Noroeste 0 -- -- 56
2020-05-01 10:00:00 17.2 24 Noroeste 39 Noroeste 0 -- -- 61
2020-05-01 09:00:00 14.9 15 Oeste 31 Noroeste 0 -- -- 68
2020-05-01 08:00:00 14.8 18 Noroeste 45 Oeste 0 -- -- 67
2020-05-01 07:00:00 14.4 24 Noroeste 43 Noroeste 0 -- -- 67
2020-05-01 06:00:00 14 23 Noroeste 42 Noroeste 0 -- -- 69
2020-05-01 05:00:00 13.9 21 Noroeste 33 Oeste 0 -- -- 70
2020-05-01 04:00:00 13.5 7 Oeste 21 Oeste 0 -- -- 71
2020-05-01 03:00:00 14.4 10 Oeste 27 Noroeste 0 -- -- 67
2020-05-01 02:00:00 14.9 16 Noroeste 31 Noroeste 0 -- -- 64
2020-05-01 01:00:00 15.2 13 Noroeste 21 Oeste 0 -- -- 63
2020-05-01 00:00:00 16.1 14 Noroeste 24 Noroeste 0 -- -- 58
2020-04-30 23:00:00 16.2 10 Noroeste 20 Noroeste 0 -- -- 57
2020-04-30 22:00:00 16.6 9 Noroeste 19 Oeste 0 -- -- 56
2020-04-30 21:00:00 18.2 12 Noroeste 34 Noroeste 0 -- -- 50
2020-04-30 20:00:00 20.1 20 Noroeste 38 Noroeste 0 -- -- 44
2020-04-30 19:00:00 21.3 17 Noroeste 37 Oeste 0 -- -- 42
2020-04-30 18:00:00 21.7 21 Oeste 45 Noroeste 0 -- -- 40
2020-04-30 17:00:00 20.7 19 Noroeste 39 Noroeste 0 -- -- 43
2020-04-30 16:00:00 21 19 Noroeste 38 Oeste 0 -- -- 44
2020-04-30 15:00:00 19.9 18 Noroeste 49 Oeste 0 -- -- 47
2020-04-30 14:00:00 18.6 27 Noroeste 50 Noroeste 0 -- -- 52
2020-04-30 13:00:00 18.4 21 Noroeste 49 Noroeste 0 -- -- 55
2020-04-30 12:00:00 17.7 26 Noroeste 48 Noroeste 0 -- -- 61
2020-04-30 11:00:00 16.6 22 Noroeste 47 Noroeste 0 -- -- 66
2020-04-30 10:00:00 16.1 23 Oeste 45 Oeste 0 -- -- 63
2020-04-30 09:00:00 14.1 18 Oeste 35 Oeste 0 -- -- 67
2020-04-30 08:00:00 13.8 15 Oeste 35 Noroeste 0 -- -- 67
2020-04-30 07:00:00 14 17 Noroeste 42 Noroeste 0 -- -- 67
2020-04-30 06:00:00 14.9 18 Noroeste 41 Oeste 0 -- -- 62
2020-04-30 05:00:00 15.2 22 Noroeste 46 Noroeste 0 -- -- 60
2020-04-30 04:00:00 15.7 12 Noroeste 26 Noroeste 0 -- -- 59
2020-04-30 03:00:00 15.4 6 Noroeste 29 Noroeste 0 -- -- 57
2020-04-30 02:00:00 15.1 10 Noroeste 19 Noroeste 0 -- -- 57
2020-04-30 01:00:00 16.1 13 Noroeste 22 Noroeste 0 -- -- 53
2020-04-30 00:00:00 16.6 10 Noroeste 23 Noroeste 0 -- -- 50
2020-04-29 23:00:00 17.7 10 Noroeste 25 Noroeste 0 -- -- 45
2020-04-29 22:00:00 18.2 10 Noroeste 22 Noroeste 0 -- -- 43
2020-04-29 21:00:00 19 8 Noroeste 21 Oeste 0 -- -- 41
2020-04-29 20:00:00 20.1 13 Noroeste 39 Noroeste 0 -- -- 39
2020-04-29 19:00:00 22 18 Oeste 40 Noroeste 0 -- -- 36
2020-04-29 18:00:00 22.4 18 Oeste 43 Oeste 0 -- -- 35
2020-04-29 17:00:00 21.6 16 Oeste 45 Oeste 0 -- -- 40
2020-04-29 16:00:00 21.1 24 Oeste 41 Oeste 0 -- -- 40
2020-04-29 15:00:00 21.5 18 Oeste 36 Oeste 0 -- -- 42
2020-04-29 14:00:00 21.2 14 Oeste 33 Noroeste 0 -- -- 42
2020-04-29 13:00:00 20.1 15 Oeste 35 Oeste 0 -- -- 44
2020-04-29 12:00:00 18.5 16 Noroeste 31 Noroeste 0 -- -- 44
2020-04-29 11:00:00 16.9 9 Noroeste 21 Oeste 0 -- -- 50
2020-04-29 10:00:00 14.7 10 Noroeste 19 Noroeste 0 -- -- 55
2020-04-29 09:00:00 12.2 14 Noroeste 25 Noroeste 0 -- -- 64
2020-04-29 08:00:00 9.7 6 Oeste 16 Noroeste 0 -- -- 73
2020-04-29 07:00:00 9.6 12 Noroeste 18 Norte 0 -- -- 72
2020-04-29 06:00:00 9.8 11 Noroeste 17 Noroeste 0 -- -- 72
2020-04-29 05:00:00 10 8 Noroeste 17 Noroeste 0 -- -- 71
2020-04-29 04:00:00 8.9 2 Norte 9 Oeste 0 -- -- 77
2020-04-29 03:00:00 9.5 3 Nordeste 6 Nordeste 0 -- -- 73
2020-04-29 02:00:00 9.7 0 Calma 12 Noroeste 0 -- -- 73
2020-04-29 01:00:00 11.1 3 Noroeste 14 Noroeste 0 -- -- 64
2020-04-29 00:00:00 12.7 7 Noroeste 18 Noroeste 0 -- -- 55
2020-04-28 23:00:00 13.7 10 Noroeste 17 Noroeste 0 -- -- 53
2020-04-28 22:00:00 14.8 8 Noroeste 21 Noroeste 0 -- -- 51
2020-04-28 21:00:00 16.4 10 Noroeste 28 Oeste 0 -- -- 46
2020-04-28 20:00:00 18 12 Oeste 33 Oeste 0 -- -- 43
2020-04-28 19:00:00 18.5 14 Oeste 34 Oeste 0 -- -- 42
2020-04-28 18:00:00 18.6 18 Oeste 42 Oeste 0 -- -- 40
2020-04-28 17:00:00 19 18 Oeste 47 Oeste 0 -- -- 40
2020-04-28 16:00:00 20.1 21 Oeste 37 Oeste 0 -- -- 39
2020-04-28 15:00:00 18.9 15 Oeste 35 Oeste 0 -- -- 42
2020-04-28 14:00:00 19.4 18 Oeste 35 Noroeste 0 -- -- 42
2020-04-28 13:00:00 18.3 15 Oeste 45 Noroeste 0 -- -- 46
2020-04-28 12:00:00 16.8 19 Noroeste 35 Noroeste 0 -- -- 50
2020-04-28 11:00:00 15.9 17 Noroeste 31 Noroeste 0 -- -- 55
2020-04-28 10:00:00 13.9 14 Noroeste 28 Oeste 0 -- -- 61
2020-04-28 09:00:00 12.8 14 Noroeste 25 Noroeste 0 -- -- 67
2020-04-28 08:00:00 10.5 10 Noroeste 21 Noroeste 0 -- -- 74
2020-04-28 07:00:00 9.5 13 Noroeste 23 Noroeste 0 -- -- 80
2020-04-28 06:00:00 10.1 12 Noroeste 19 Noroeste 0 -- -- 78
2020-04-28 05:00:00 9.8 7 Noroeste 12 Noroeste 0 -- -- 80
2020-04-28 04:00:00 10 2 Sudeste 14 Noroeste 0 -- -- 80
2020-04-28 03:00:00 11.3 6 Noroeste 21 Noroeste 0 -- -- 75
2020-04-28 02:00:00 12.2 16 Noroeste 25 Noroeste 0 -- -- 72
2020-04-28 01:00:00 12.3 9 Noroeste 22 Noroeste 0 -- -- 71
2020-04-28 00:00:00 12.6 9 Noroeste 16 Norte 0 -- -- 70